Dallas, TX

11:37 AM CDT on October 31, 2014 (GMT -0500)
Bryan Parkway | Change Station
CLOSE
Current Station
Personal Weather Station
Location: Dallas, TX
Elevation: 525 ft
Nearby Weather Stations

Elev 525 ft 32.81 °N, 96.76 °W | Updated 2 seconds ago

Clear
Clear
63.7 °F
Feels Like 63.7 °F
N
19.9
Wind Variable Wind from NNE
Gusts 28.3 mph

Today
High -- | Low -- °F
--% Chance of Precip.
Yesterday
High -- | Low -- °F
Precip. -- in
7:44 AM 6:37 PM
First Quarter, 57% visible
Pressure 30.32 in
Visibility 10.0 miles
Clouds Clear
Dew Point 39 °F
Humidity 40%
Rainfall 0.00 in
Snow Depth Not available.
UV 3 out of 12
Pollen 4.00 out of 12
Air Quality Not available.
Flu Activity Not available.
METAR KDAL 311553Z 01012KT 10SM CLR 16/06 A3033 RMK AO2 SLP268 T01560056

More Conditions Fewer Conditions

Pressure 30.32 in
Visibility 10.0 miles
Clouds Clear
Dew Point 39 °F
Humidity 40%
Rainfall 0.00 in
Snow Depth Not available.
UV 3 out of 12
Pollen 4.00 out of 12
Air Quality Not available.
Flu Activity Not available.
METAR KDAL 311553Z 01012KT 10SM CLR 16/06 A3033 RMK AO2 SLP268 T01560056

More Conditions Fewer Conditions

10-Day Weather Forecast

Almanac

Astronomy

Oct. 31, 2014 Rise Set
Actual Time
Civil Twilight
Nautical Twilight
Astronomical Twilight
Moon
Length of Visible Light
Length of Day
Tomorrow will be .
, % of the Moon is Illuminated

Today's Extremes

State Highs State Lows

Community

WunderPhotos

Upload Photos

1,766,656 photos uploaded!

WunderBlogs® & News

Nearby

Air Quality

  Air Quality AQ Index Pollutant
Not available.

Snow Depth

Station Depth Elevation

Earthquake Activity

City Distance Mag. Time & Date
Minimum magnitude displayed is 2.5.

Coastal Water Temperatures

Place Temperature

Nearby Weather Stations